Oxdrift, Canada
Current Conditions -  °F | °C
As of 3:41 PM on Saturday 20 Dec 2014 (Local Time) from CYHD Reporting Station
Haze Haze  
Wind Chill: -8°   Ceiling: 400
Heat Index: -3°   Visibility: 1.5mi
Dew Point: -3°   Wind: 8mph
Humidity: 100%   Direction: 170°S
Pressure: 30"   Gusts: NA
Location:  49.82°N, 92.98°W
Report Text: CYHD 202141Z AUTO 17007KT 1 1/2SM BR OVC004 M03/M03 A3000 RMK ICG SLP185
Loading
Personal Weather Stations






























Interactive Weather Map New forecast layout! Learn more

10-Day Weather Forecast

Advertisements
Track Severe Weather on mobile